Terminal Aerodrome Forecast
Issued by NWS Burlington, VT

Home | Current Version | Previous Version | Text Only | Print | Product List | Glossary On
Versions: 1 2 3 4 5 6 7 8 9 10 11 12 13 14
000
FTUS41 KBTV 271936 AAD
TAFBTV
TAF AMD
KBTV 271936Z 2720/2818 19011KT P6SM VCSH BKN045
      TEMPO 2720/2723 20010G18KT -SHRA BKN035
     FM280300 19008KT P6SM SCT060 BKN150
     FM281100 20012G22KT P6SM VCSH BKN050=

USA.gov is the U.S. government's official web portal to all federal, state and local government web resources and services.